KGED

Delaware Coastal Airport

Georgetown, Delaware, USA
METAR KGED 230954Z AUTO 06013KT 5SM -RA BR OVC008 06/04 A3058 RMK AO2 RAB23 SLP356 P0001 T00560039
Observed Flight Rules
Feb-23 @ 09:54 UTC (32 minutes ago) Instrument Flight Rules
Wind Visibility Clouds Conditions
60° at 13 knots 5 miles
  • Overcast at 800' AGL
  • Light Rain
  • Mist
Temperatures Readings Precipitation
Current 6°C / 43°F
Dewpoint 4°C / 39°F
Humidity 87%
Altimeter 30.58" Hg
Pressure 1035.6 hPa
Elevation 19
Current Rain 0.01
METAR KGED 230954Z AUTO 06013KT 5SM -RA BR OVC008 06/04 A3058 RMK AO2 RAB23 SLP356 P0001 T00560039
Observed Flight Rules
Feb-23 @ 09:54 UTC
(32 minutes ago)
IFR
Wind Visibility
60° at 13 knots 5 miles
Clouds
  • Overcast at 800' AGL
Conditions
  • Light Rain
  • Mist
Temperature Dewpoint
6°C / 43°F 4°C / 39°F
Humidity Altimeter Pressure
87% 30.58" Hg 1035.6 hPa
Current Rain
0.01